createdAt,value
2022-08-09T00:02:27.638Z,22.70
2022-08-09T00:05:03.711Z,22.65
2022-08-09T00:07:44.569Z,22.62
2022-08-09T00:10:21.263Z,22.57
2022-08-09T00:12:52.643Z,22.55
2022-08-09T00:15:19.483Z,22.51
2022-08-09T00:18:05.623Z,22.49
2022-08-09T00:20:34.111Z,22.43
2022-08-09T00:23:07.844Z,22.37
2022-08-09T00:25:51.667Z,22.33
2022-08-09T00:28:18.295Z,22.30
2022-08-09T00:30:46.042Z,22.27
2022-08-09T00:33:13.687Z,22.22
2022-08-09T00:35:43.079Z,22.19
2022-08-09T00:38:10.863Z,22.17
2022-08-09T00:40:39.057Z,22.11
2022-08-09T00:44:14.659Z,22.06
2022-08-09T00:46:05.943Z,22.03
2022-08-09T00:48:33.550Z,22.00
2022-08-09T00:51:03.629Z,21.96
2022-08-09T00:53:39.080Z,21.93
2022-08-09T00:56:09.751Z,21.91
2022-08-09T00:58:37.463Z,21.87
2022-08-09T01:01:04.368Z,21.85
2022-08-09T01:03:30.747Z,21.81
2022-08-09T01:08:49.596Z,21.76
2022-08-09T01:11:17.818Z,21.72
2022-08-09T01:13:59.001Z,21.69
2022-08-09T01:16:28.012Z,21.65
2022-08-09T01:19:04.455Z,21.63
2022-08-09T01:21:40.978Z,21.61
2022-08-09T01:24:11.400Z,21.57
2022-08-09T01:26:41.033Z,21.54
2022-08-09T01:29:07.395Z,21.52
2022-08-09T01:32:29.202Z,21.50
2022-08-09T01:34:20.194Z,21.47
2022-08-09T01:36:46.716Z,21.43
2022-08-09T01:39:14.704Z,21.40
2022-08-09T01:41:53.707Z,21.38
2022-08-09T01:44:27.717Z,21.36
2022-08-09T01:46:54.023Z,21.34
2022-08-09T01:49:24.081Z,21.31
2022-08-09T01:51:53.978Z,21.30
2022-08-09T01:54:21.964Z,21.28
2022-08-09T01:56:51.430Z,21.27
2022-08-09T01:59:18.225Z,21.25
2022-08-09T02:01:58.094Z,21.23
2022-08-09T02:04:28.036Z,21.21
2022-08-09T02:06:58.974Z,21.17
2022-08-09T02:09:42.084Z,21.16
2022-08-09T02:12:09.012Z,21.14
2022-08-09T02:14:35.552Z,21.11
2022-08-09T02:17:59.136Z,21.09
2022-08-09T02:19:48.525Z,21.05
2022-08-09T02:22:15.893Z,21.04
2022-08-09T02:24:43.096Z,21.02
2022-08-09T02:27:13.291Z,21.00
2022-08-09T02:29:45.086Z,20.97
2022-08-09T02:32:15.604Z,20.94
2022-08-09T02:34:51.779Z,20.92
2022-08-09T02:37:31.665Z,20.88
2022-08-09T02:40:01.587Z,20.86
2022-08-09T02:42:28.280Z,20.83
2022-08-09T02:44:55.116Z,20.80
2022-08-09T02:47:22.705Z,20.78
2022-08-09T02:49:55.296Z,20.76
2022-08-09T02:52:29.506Z,20.73
2022-08-09T02:54:57.362Z,20.69
2022-08-09T02:57:25.015Z,20.67
2022-08-09T03:00:11.460Z,20.65
2022-08-09T03:02:39.095Z,20.63
2022-08-09T03:05:25.939Z,20.59
2022-08-09T03:07:55.047Z,20.57
2022-08-09T03:10:21.896Z,20.55
2022-08-09T03:12:51.982Z,20.52
2022-08-09T03:15:19.602Z,20.49
2022-08-09T03:17:46.362Z,20.46
2022-08-09T03:20:24.806Z,20.44
2022-08-09T03:22:56.819Z,20.41
2022-08-09T03:25:26.487Z,20.40
2022-08-09T03:28:11.227Z,20.38
2022-08-09T03:30:39.808Z,20.36
2022-08-09T03:33:13.066Z,20.34
2022-08-09T03:36:13.805Z,20.31
2022-08-09T03:38:32.181Z,20.30
2022-08-09T03:40:58.596Z,20.28
2022-08-09T03:43:24.980Z,20.25
2022-08-09T03:46:04.969Z,20.23
2022-08-09T03:48:51.366Z,20.21
2022-08-09T03:51:43.632Z,20.19
2022-08-09T03:54:06.465Z,20.14
2022-08-09T03:56:37.758Z,20.12
2022-08-09T03:59:07.531Z,20.10
2022-08-09T04:01:40.556Z,20.08
2022-08-09T04:04:09.934Z,20.07
2022-08-09T04:06:40.867Z,20.06
2022-08-09T04:09:47.758Z,20.04
2022-08-09T04:12:06.626Z,20.02
2022-08-09T04:15:00.674Z,19.99
2022-08-09T04:17:25.431Z,19.98
2022-08-09T04:19:56.175Z,19.99
2022-08-09T04:22:22.858Z,19.97
2022-08-09T04:24:49.853Z,19.95
2022-08-09T04:27:21.900Z,19.97
2022-08-09T04:29:50.398Z,19.98
2022-08-09T04:32:31.394Z,20.03
2022-08-09T04:35:01.355Z,20.07
2022-08-09T04:37:45.617Z,20.12
2022-08-09T04:40:12.485Z,20.19
2022-08-09T04:42:46.020Z,20.24
2022-08-09T04:45:14.977Z,20.30
2022-08-09T04:47:59.409Z,20.37
2022-08-09T04:50:35.076Z,20.42
2022-08-09T04:53:04.754Z,20.49
2022-08-09T04:55:38.934Z,20.55
2022-08-09T04:58:18.625Z,20.61
2022-08-09T05:00:47.369Z,20.67
2022-08-09T05:03:39.899Z,20.74
2022-08-09T05:06:07.016Z,20.80
2022-08-09T05:08:34.619Z,20.88
2022-08-09T05:11:01.303Z,20.96
2022-08-09T05:13:28.932Z,21.05
2022-08-09T05:15:59.348Z,21.14
2022-08-09T05:18:37.905Z,21.23
2022-08-09T05:21:22.777Z,21.33
2022-08-09T05:23:57.735Z,21.45
2022-08-09T05:26:36.229Z,21.57
2022-08-09T05:29:04.039Z,21.69
2022-08-09T05:31:45.035Z,21.80
2022-08-09T05:34:17.951Z,21.92
2022-08-09T05:36:44.272Z,22.03
2022-08-09T05:39:13.792Z,22.14
2022-08-09T05:41:55.138Z,22.27
2022-08-09T05:44:22.295Z,22.41
2022-08-09T05:46:55.632Z,22.55
2022-08-09T05:50:19.579Z,22.69
2022-08-09T05:52:09.900Z,22.86
2022-08-09T05:54:36.742Z,23.06
2022-08-09T05:57:06.338Z,23.25
2022-08-09T05:59:32.901Z,23.43
2022-08-09T06:02:00.461Z,23.60
2022-08-09T06:04:34.931Z,23.78
2022-08-09T06:07:01.571Z,23.92
2022-08-09T06:09:55.106Z,24.08
2022-08-09T06:12:14.702Z,24.27
2022-08-09T06:14:40.969Z,24.44
2022-08-09T06:17:10.750Z,24.61
2022-08-09T06:19:37.194Z,24.77
2022-08-09T06:22:04.107Z,24.91
2022-08-09T06:24:30.975Z,25.04
2022-08-09T06:26:57.748Z,25.16
2022-08-09T06:29:24.814Z,25.28
2022-08-09T06:32:09.351Z,25.40
2022-08-09T06:34:40.219Z,25.54
2022-08-09T06:37:08.097Z,25.66
2022-08-09T06:39:49.221Z,25.75
2022-08-09T06:42:24.961Z,25.83
2022-08-09T06:44:58.715Z,25.93
2022-08-09T06:47:39.541Z,26.04
2022-08-09T06:50:14.076Z,26.17
2022-08-09T06:52:46.803Z,26.30
2022-08-09T06:55:13.696Z,26.43
2022-08-09T06:58:01.464Z,26.58
2022-08-09T07:00:48.645Z,26.73
2022-08-09T07:03:15.126Z,26.83
2022-08-09T07:05:53.757Z,26.99
2022-08-09T07:08:30.556Z,27.16
2022-08-09T07:10:59.937Z,27.33
2022-08-09T07:13:30.433Z,27.47
2022-08-09T07:16:41.487Z,27.59
2022-08-09T07:18:47.355Z,27.74
2022-08-09T07:21:14.054Z,27.89
2022-08-09T07:23:56.350Z,28.02
2022-08-09T07:26:24.174Z,28.16
2022-08-09T07:29:08.917Z,28.29
2022-08-09T07:31:38.403Z,28.46
2022-08-09T07:34:05.083Z,28.62
2022-08-09T07:36:33.034Z,28.75
2022-08-09T07:39:00.856Z,28.87
2022-08-09T07:41:32.942Z,29.01
2022-08-09T07:43:59.420Z,29.16
2022-08-09T07:46:29.608Z,29.29
2022-08-09T07:48:59.309Z,29.43
2022-08-09T07:52:05.814Z,29.56
2022-08-09T07:54:14.176Z,29.75
2022-08-09T07:56:48.937Z,29.95
2022-08-09T07:59:34.616Z,30.15
2022-08-09T08:02:02.773Z,30.37
2022-08-09T08:04:32.146Z,30.51
2022-08-09T08:07:00.082Z,30.68
2022-08-09T08:09:41.250Z,30.88
2022-08-09T08:12:28.131Z,31.12
2022-08-09T08:14:56.138Z,31.33
2022-08-09T08:17:52.967Z,31.55
2022-08-09T08:20:13.564Z,31.80
2022-08-09T08:22:40.187Z,31.97
2022-08-09T08:25:09.496Z,32.15
2022-08-09T08:27:43.396Z,32.30
2022-08-09T08:30:11.151Z,32.44
2022-08-09T08:32:41.594Z,32.60
2022-08-09T08:35:19.363Z,32.79
2022-08-09T08:38:04.494Z,32.95
2022-08-09T08:40:35.239Z,33.04
2022-08-09T08:43:13.140Z,33.13
2022-08-09T08:45:43.204Z,33.20
2022-08-09T08:48:19.521Z,33.22
2022-08-09T08:50:49.404Z,33.15
2022-08-09T08:53:21.676Z,33.06
2022-08-09T08:55:48.453Z,33.00
2022-08-09T08:58:14.722Z,32.92
2022-08-09T09:00:43.306Z,32.81
2022-08-09T09:03:21.209Z,32.59
2022-08-09T09:06:00.651Z,32.09
2022-08-09T09:08:31.873Z,30.99
2022-08-09T09:10:58.572Z,30.41
2022-08-09T09:13:24.894Z,30.15
2022-08-09T09:16:08.631Z,29.96
2022-08-09T09:18:36.182Z,29.87
2022-08-09T09:21:02.412Z,29.85
2022-08-09T09:23:37.832Z,29.82
2022-08-09T09:26:11.966Z,29.80
2022-08-09T09:29:03.508Z,29.79
2022-08-09T09:32:03.350Z,29.76
2022-08-09T09:34:11.652Z,29.73
2022-08-09T09:36:46.998Z,29.69
2022-08-09T09:39:21.095Z,29.65
2022-08-09T09:41:49.259Z,29.63
2022-08-09T09:44:16.308Z,29.63
2022-08-09T09:46:52.787Z,29.62
2022-08-09T09:49:19.141Z,29.62
2022-08-09T09:51:58.721Z,29.61
2022-08-09T09:54:27.421Z,29.62
2022-08-09T09:58:04.023Z,29.63
2022-08-09T09:59:45.242Z,29.61
2022-08-09T10:02:18.613Z,29.58
2022-08-09T10:04:46.973Z,29.56
2022-08-09T10:07:13.439Z,29.54
2022-08-09T10:09:45.876Z,29.52
2022-08-09T10:12:28.481Z,29.53
2022-08-09T10:14:58.550Z,29.52
2022-08-09T10:17:50.829Z,29.53
2022-08-09T10:20:15.289Z,29.52
2022-08-09T10:22:43.859Z,29.51
2022-08-09T10:25:13.953Z,29.50
2022-08-09T10:27:56.089Z,29.47
2022-08-09T10:34:08.940Z,29.41
2022-08-09T10:36:00.953Z,29.41
2022-08-09T10:38:54.405Z,29.42
2022-08-09T10:41:16.950Z,29.42
2022-08-09T10:43:46.928Z,29.33
2022-08-09T10:46:21.063Z,29.44
2022-08-09T10:48:52.778Z,29.44
2022-08-09T10:51:19.090Z,29.44
2022-08-09T10:53:54.481Z,29.45
2022-08-09T10:56:23.021Z,29.45
2022-08-09T10:58:51.309Z,29.46
2022-08-09T11:03:15.932Z,29.48
2022-08-09T11:04:06.983Z,29.49
2022-08-09T11:06:48.732Z,29.50
2022-08-09T11:09:16.468Z,29.52
2022-08-09T11:11:43.949Z,29.53
2022-08-09T11:14:19.849Z,29.50
2022-08-09T11:16:55.025Z,29.44
2022-08-09T11:19:23.082Z,29.49
2022-08-09T11:22:18.633Z,29.49
2022-08-09T11:24:52.203Z,29.50
2022-08-09T11:27:18.952Z,29.46
2022-08-09T11:30:32.322Z,29.49
2022-08-09T11:32:52.171Z,29.52
2022-08-09T11:35:26.362Z,29.52
2022-08-09T11:38:01.694Z,29.53
2022-08-09T11:40:28.251Z,29.54
2022-08-09T11:42:55.974Z,29.56
2022-08-09T11:45:22.401Z,29.52
2022-08-09T11:47:48.981Z,29.48
2022-08-09T11:50:56.350Z,29.40
2022-08-09T11:53:21.376Z,29.35
2022-08-09T11:55:52.385Z,29.36
2022-08-09T11:58:30.408Z,29.32
2022-08-09T12:00:59.559Z,29.30
2022-08-09T12:03:54.839Z,29.28
2022-08-09T12:06:13.188Z,29.30
2022-08-09T12:08:41.930Z,29.33
2022-08-09T12:11:12.570Z,29.32
2022-08-09T12:14:09.153Z,29.31
2022-08-09T12:16:30.270Z,29.28
2022-08-09T12:19:03.850Z,29.31
2022-08-09T12:21:38.660Z,29.32
2022-08-09T12:24:08.594Z,29.34
2022-08-09T12:26:36.395Z,29.35
2022-08-09T12:29:29.804Z,29.35
2022-08-09T12:31:58.418Z,29.32
2022-08-09T12:34:30.672Z,29.29
2022-08-09T12:36:58.894Z,29.28
2022-08-09T12:39:37.684Z,29.26
2022-08-09T12:42:05.107Z,29.26
2022-08-09T12:44:37.409Z,29.30
2022-08-09T12:47:07.032Z,29.30
2022-08-09T12:49:35.179Z,29.33
2022-08-09T12:52:03.615Z,29.33
2022-08-09T12:54:30.988Z,29.34
2022-08-09T12:56:57.557Z,29.34
2022-08-09T12:59:23.985Z,29.35
2022-08-09T13:01:50.444Z,29.36
2022-08-09T13:04:38.027Z,29.36
2022-08-09T13:07:03.372Z,29.35
2022-08-09T13:09:30.526Z,29.33
2022-08-09T13:12:02.037Z,29.34
2022-08-09T13:14:41.065Z,29.30
2022-08-09T13:17:12.776Z,29.26
2022-08-09T13:20:10.038Z,29.26
2022-08-09T13:22:35.666Z,29.31
2022-08-09T13:25:07.487Z,29.32
2022-08-09T13:27:39.434Z,29.33
2022-08-09T13:30:50.372Z,29.34
2022-08-09T13:33:01.380Z,29.33
2022-08-09T13:35:34.599Z,29.35
2022-08-09T13:38:32.962Z,29.34
2022-08-09T13:41:51.429Z,29.32
2022-08-09T13:43:48.947Z,29.32
2022-08-09T13:47:16.691Z,29.30
2022-08-09T13:49:05.212Z,29.29
2022-08-09T13:51:32.140Z,29.28
2022-08-09T13:53:58.507Z,29.27
2022-08-09T13:56:25.561Z,29.26
2022-08-09T13:58:52.012Z,29.22
2022-08-09T14:02:00.797Z,29.19
2022-08-09T14:04:11.292Z,29.18
2022-08-09T14:06:41.357Z,29.15
2022-08-09T14:09:12.796Z,29.12
2022-08-09T14:11:47.120Z,29.10
2022-08-09T14:14:25.611Z,29.10
2022-08-09T14:16:53.727Z,29.09
2022-08-09T14:19:20.638Z,29.08
2022-08-09T14:21:47.842Z,29.08
2022-08-09T14:24:22.482Z,29.08
2022-08-09T14:26:59.359Z,29.07
2022-08-09T14:30:35.576Z,29.03
2022-08-09T14:32:16.185Z,29.01
2022-08-09T14:34:44.144Z,28.99
2022-08-09T14:37:11.457Z,28.96
2022-08-09T14:39:47.173Z,28.97
2022-08-09T14:42:30.503Z,28.98
2022-08-09T14:45:00.545Z,28.97
2022-08-09T14:47:44.774Z,28.96
2022-08-09T14:50:13.107Z,28.97
2022-08-09T14:52:42.710Z,28.97
2022-08-09T14:55:09.538Z,28.98
2022-08-09T14:57:43.613Z,28.97
2022-08-09T15:00:10.107Z,28.97
2022-08-09T15:02:37.675Z,28.96
2022-08-09T15:05:05.780Z,28.95
2022-08-09T15:07:35.526Z,28.95
2022-08-09T15:10:07.504Z,28.95
2022-08-09T15:12:37.766Z,28.93
2022-08-09T15:15:04.075Z,28.94
2022-08-09T15:17:42.078Z,28.92
2022-08-09T15:20:11.791Z,28.92
2022-08-09T15:22:47.089Z,28.90
2022-08-09T15:25:14.281Z,28.89
2022-08-09T15:27:47.922Z,28.88
2022-08-09T15:30:48.740Z,28.87
2022-08-09T15:33:15.180Z,28.84
2022-08-09T15:36:02.028Z,28.82
2022-08-09T15:38:32.617Z,28.82
2022-08-09T15:40:59.319Z,28.79
2022-08-09T15:43:36.859Z,28.78
2022-08-09T15:46:28.302Z,28.76
2022-08-09T15:49:20.753Z,28.75
2022-08-09T15:51:44.707Z,28.73
2022-08-09T15:54:33.525Z,28.71
2022-08-09T15:57:09.552Z,28.69
2022-08-09T15:59:36.924Z,28.69
2022-08-09T16:02:05.615Z,28.68
2022-08-09T16:04:35.328Z,28.67
2022-08-09T16:07:03.472Z,28.65
2022-08-09T16:09:32.287Z,28.63
2022-08-09T16:12:17.433Z,28.63
2022-08-09T16:14:44.676Z,28.60
2022-08-09T16:17:16.966Z,28.59
2022-08-09T16:19:49.447Z,28.56
2022-08-09T16:22:32.878Z,28.55
2022-08-09T16:25:01.490Z,28.53
2022-08-09T16:27:30.010Z,28.51
2022-08-09T16:30:01.141Z,28.50
2022-08-09T16:32:35.190Z,28.50
2022-08-09T16:35:05.558Z,28.49
2022-08-09T16:37:54.993Z,28.50
2022-08-09T16:40:20.651Z,28.49
2022-08-09T16:43:06.624Z,28.49
2022-08-09T16:45:32.943Z,28.47
2022-08-09T16:48:43.171Z,28.47
2022-08-09T16:50:58.815Z,28.46
2022-08-09T16:53:32.251Z,28.46
2022-08-09T16:56:03.636Z,28.44
2022-08-09T16:58:35.908Z,28.43
2022-08-09T17:01:03.988Z,28.42
2022-08-09T17:03:30.412Z,28.42
2022-08-09T17:06:07.474Z,28.40
2022-08-09T17:08:43.134Z,28.39
2022-08-09T17:11:24.509Z,28.38
2022-08-09T17:14:01.331Z,28.37
2022-08-09T17:16:29.244Z,28.36
2022-08-09T17:18:58.360Z,28.34
2022-08-09T17:21:29.084Z,28.33
2022-08-09T17:24:28.480Z,28.33
2022-08-09T17:26:42.299Z,28.31
2022-08-09T17:29:20.735Z,28.30
2022-08-09T17:31:49.167Z,28.28
2022-08-09T17:34:38.054Z,28.27
2022-08-09T17:37:02.730Z,28.25
2022-08-09T17:39:53.066Z,28.23
2022-08-09T17:42:51.268Z,28.22
2022-08-09T17:45:06.343Z,28.20
2022-08-09T17:47:49.311Z,28.18
2022-08-09T17:50:25.060Z,28.16
2022-08-09T17:53:19.673Z,28.15
2022-08-09T17:55:51.941Z,28.13
2022-08-09T17:58:24.282Z,28.11
2022-08-09T18:00:56.693Z,28.08
2022-08-09T18:03:24.984Z,28.08
2022-08-09T18:05:53.234Z,28.06
2022-08-09T18:08:22.171Z,28.04
2022-08-09T18:11:02.107Z,28.02
2022-08-09T18:13:43.703Z,28.01
2022-08-09T18:16:16.369Z,27.98
2022-08-09T18:18:49.326Z,27.96
2022-08-09T18:21:23.776Z,27.94
2022-08-09T18:24:12.275Z,27.91
2022-08-09T18:26:45.944Z,27.89
2022-08-09T18:30:38.672Z,27.87
2022-08-09T18:32:18.989Z,27.85
2022-08-09T18:35:03.797Z,27.81
2022-08-09T18:37:47.703Z,27.80
2022-08-09T18:40:16.215Z,27.77
2022-08-09T18:42:45.323Z,27.76
2022-08-09T18:46:44.530Z,27.72
2022-08-09T18:47:58.518Z,27.71
2022-08-09T18:50:25.126Z,27.67
2022-08-09T18:52:59.947Z,27.65
2022-08-09T18:55:45.699Z,27.63
2022-08-09T18:58:12.807Z,27.59
2022-08-09T19:00:59.571Z,27.55
2022-08-09T19:03:26.944Z,27.53
2022-08-09T19:06:03.466Z,27.51
2022-08-09T19:08:30.640Z,27.49
2022-08-09T19:10:57.228Z,27.45
2022-08-09T19:13:49.629Z,27.42
2022-08-09T19:16:10.194Z,27.37
2022-08-09T19:18:43.670Z,27.33
2022-08-09T19:21:10.941Z,27.30
2022-08-09T19:24:37.317Z,27.25
2022-08-09T19:26:31.510Z,27.20
2022-08-09T19:29:01.576Z,27.18
2022-08-09T19:31:28.661Z,27.13
2022-08-09T19:33:57.109Z,27.10
2022-08-09T19:36:31.000Z,27.07
2022-08-09T19:38:59.059Z,27.03
2022-08-09T19:41:33.190Z,26.99
2022-08-09T19:44:03.253Z,26.94
2022-08-09T19:46:35.196Z,26.91
2022-08-09T19:50:05.211Z,26.87
2022-08-09T19:51:55.349Z,26.84
2022-08-09T19:54:22.655Z,26.81
2022-08-09T19:56:52.398Z,26.77
2022-08-09T19:59:58.386Z,26.74
2022-08-09T20:02:18.103Z,26.71
2022-08-09T20:04:55.023Z,26.66
2022-08-09T20:07:22.599Z,26.63
2022-08-09T20:09:49.332Z,26.59
2022-08-09T20:12:27.143Z,26.56
2022-08-09T20:14:58.748Z,26.52
2022-08-09T20:17:26.233Z,26.49
2022-08-09T20:19:57.306Z,26.45
2022-08-09T20:22:24.206Z,26.42
2022-08-09T20:24:58.639Z,26.38
2022-08-09T20:27:29.336Z,26.35
2022-08-09T20:29:56.766Z,26.32
2022-08-09T20:32:33.104Z,26.27
2022-08-09T20:35:01.801Z,26.23
2022-08-09T20:37:37.870Z,26.19
2022-08-09T20:40:19.001Z,26.16
2022-08-09T20:42:59.319Z,26.13
2022-08-09T20:45:57.365Z,26.10
2022-08-09T20:48:25.416Z,26.06
2022-08-09T20:50:57.957Z,26.03
2022-08-09T20:53:37.055Z,25.99
2022-08-09T20:56:05.072Z,25.95
2022-08-09T20:58:32.252Z,25.92
2022-08-09T21:01:14.368Z,25.88
2022-08-09T21:05:48.236Z,25.84
2022-08-09T21:06:35.925Z,25.80
2022-08-09T21:09:02.701Z,25.77
2022-08-09T21:14:17.906Z,25.70
2022-08-09T21:16:45.765Z,25.67
2022-08-09T21:20:17.071Z,25.62
2022-08-09T21:22:02.805Z,25.58
2022-08-09T21:24:33.556Z,25.54
2022-08-09T21:27:00.229Z,25.51
2022-08-09T21:29:49.357Z,25.48
2022-08-09T21:32:18.717Z,25.45
2022-08-09T21:34:49.294Z,25.42
2022-08-09T21:37:18.507Z,25.39
2022-08-09T21:39:49.705Z,25.36
2022-08-09T21:42:18.012Z,25.32
2022-08-09T21:44:55.901Z,25.29
2022-08-09T21:47:23.529Z,25.25
2022-08-09T21:49:50.908Z,25.23
2022-08-09T21:52:20.295Z,25.19
2022-08-09T21:54:49.473Z,25.18
2022-08-09T21:57:37.847Z,25.15
2022-08-09T22:00:05.554Z,25.11
2022-08-09T22:02:36.629Z,25.08
2022-08-09T22:05:16.870Z,25.03
2022-08-09T22:07:51.882Z,24.97
2022-08-09T22:10:23.305Z,24.93
2022-08-09T22:12:50.494Z,24.90
2022-08-09T22:15:18.394Z,24.85
2022-08-09T22:17:48.140Z,24.80
2022-08-09T22:20:17.105Z,24.78
2022-08-09T22:22:48.789Z,24.71
2022-08-09T22:26:07.517Z,24.66
2022-08-09T22:28:01.434Z,24.61
2022-08-09T22:30:33.944Z,24.53
2022-08-09T22:33:00.573Z,24.50
2022-08-09T22:36:01.220Z,24.44
2022-08-09T22:38:14.749Z,24.39
2022-08-09T22:43:16.797Z,24.30
2022-08-09T22:48:18.327Z,24.26
2022-08-09T22:48:39.914Z,24.22
2022-08-09T22:51:17.861Z,24.16
2022-08-09T22:54:02.803Z,24.12
2022-08-09T22:56:34.404Z,24.08
2022-08-09T22:59:01.187Z,24.04
2022-08-09T23:01:33.074Z,24.00
2022-08-09T23:04:04.517Z,23.94
2022-08-09T23:06:35.998Z,23.91
2022-08-09T23:09:02.607Z,23.87
2022-08-09T23:11:29.260Z,23.84
2022-08-09T23:13:55.691Z,23.80
2022-08-09T23:16:22.757Z,23.77
2022-08-09T23:18:49.238Z,23.70
2022-08-09T23:21:25.108Z,23.65
2022-08-09T23:24:05.935Z,23.60
2022-08-09T23:26:32.994Z,23.56
2022-08-09T23:29:00.716Z,23.54
2022-08-09T23:31:27.843Z,23.49
2022-08-09T23:33:54.159Z,23.45
2022-08-09T23:36:22.033Z,23.41
2022-08-09T23:38:49.479Z,23.36
2022-08-09T23:41:27.496Z,23.31
2022-08-09T23:43:55.683Z,23.27
2022-08-09T23:46:22.026Z,23.20
2022-08-09T23:48:49.523Z,23.17
2022-08-09T23:51:16.189Z,23.14
2022-08-09T23:53:43.946Z,23.12
2022-08-09T23:56:10.370Z,23.10
2022-08-09T23:58:36.654Z,23.07
